Terminal Aerodrome Forecast
Issued by NWS Grand Forks, ND

Home | Current Version | Previous Version | Graphics & Text | Print | Product List | Glossary On
Versions: 1 2 3 4 5 6 7 8 9 10 11 12 13
000
FTUS43 KFGF 261100
TAFFAR
TAF
KFAR 261122Z 2612/2712 35010KT P6SM BKN020
     FM262100 34012KT P6SM SCT025 BKN120
     FM270100 33007KT P6SM SCT040=

USA.gov is the U.S. government's official web portal to all federal, state and local government web resources and services.